Time;durP1;ratioP1;P1;durP2;ratioP2;P2;SDS_P1;SDS_P2;PMS_P1;PMS_P2;Temp;Humidity;BMP_temperature;BMP_pressure;BME280_temperature;BME280_humidity;BME280_pressure;Samples;Min_cycle;Max_cycle;Signal;HPM_P1;HPM_P2
2022/10/23 00:01:36;;;;;;;10.57;7.43;;;11.70;99.90;;;;;;5069658;28;20439;-67
2022/10/23 00:04:09;;;;;;;14.00;7.68;;;11.70;99.90;;;;;;5085737;28;20047;-66
2022/10/23 00:06:35;;;;;;;11.57;7.50;;;11.70;99.90;;;;;;5072664;28;20098;-67
2022/10/23 00:09:03;;;;;;;12.02;7.63;;;11.70;99.90;;;;;;5071979;28;20036;-66
2022/10/23 00:11:30;;;;;;;12.30;7.80;;;11.70;99.90;;;;;;5085991;28;20398;-68
2022/10/23 00:13:59;;;;;;;12.57;8.13;;;11.60;99.90;;;;;;5062507;28;20444;-67
2022/10/23 00:16:25;;;;;;;11.10;7.80;;;11.70;99.90;;;;;;5068555;28;20028;-66
2022/10/23 00:18:51;;;;;;;12.07;7.88;;;11.70;99.90;;;;;;5062889;28;20104;-66
2022/10/23 00:21:17;;;;;;;12.77;8.63;;;11.70;99.90;;;;;;5066114;28;20115;-67
2022/10/23 00:23:44;;;;;;;15.18;8.48;;;11.70;99.90;;;;;;5067311;28;20397;-67
2022/10/23 00:26:13;;;;;;;12.68;8.82;;;11.70;99.90;;;;;;5072151;28;20040;-67
2022/10/23 00:28:39;;;;;;;16.00;8.20;;;11.60;99.90;;;;;;5069116;28;20066;-67
2022/10/23 00:31:05;;;;;;;10.70;8.88;;;11.60;99.90;;;;;;5061829;28;20612;-66
2022/10/23 00:33:32;;;;;;;11.93;8.13;;;11.60;99.90;;;;;;5087238;28;20054;-67
2022/10/23 00:35:57;;;;;;;13.23;10.07;;;11.60;99.90;;;;;;5072320;28;20490;-66
2022/10/23 00:38:23;;;;;;;15.30;9.20;;;11.60;99.90;;;;;;5071279;28;20032;-67
2022/10/23 00:40:50;;;;;;;15.65;9.75;;;11.60;99.90;;;;;;5055980;28;20218;-67
2022/10/23 00:43:24;;;;;;;14.85;8.75;;;11.60;99.90;;;;;;5067071;28;20040;-67
2022/10/23 00:45:50;;;;;;;12.50;9.00;;;11.60;99.90;;;;;;5068156;28;20087;-66
2022/10/23 00:48:17;;;;;;;14.27;9.82;;;11.60;99.90;;;;;;5068784;28;20051;-67
2022/10/23 00:50:45;;;;;;;13.27;9.43;;;11.60;99.90;;;;;;5070719;28;20036;-66
2022/10/23 00:53:12;;;;;;;14.82;9.85;;;11.60;99.90;;;;;;5069455;28;20065;-66
2022/10/23 00:55:44;;;;;;;12.40;9.13;;;11.60;99.90;;;;;;5052343;28;20112;-67
2022/10/23 00:58:10;;;;;;;12.68;8.82;;;11.60;99.90;;;;;;5067200;28;20073;-67
2022/10/23 01:00:55;;;;;;;12.90;9.43;;;11.60;99.90;;;;;;5064940;28;20041;-66
2022/10/23 01:03:26;;;;;;;14.55;9.10;;;11.60;99.90;;;;;;5065286;28;20032;-66
2022/10/23 01:06:11;;;;;;;12.95;8.77;;;11.50;99.90;;;;;;5068959;28;20044;-66
2022/10/23 01:08:49;;;;;;;12.55;8.30;;;11.60;99.90;;;;;;5068777;28;20035;-67
2022/10/23 01:11:21;;;;;;;14.45;8.93;;;11.50;99.90;;;;;;5069293;28;20036;-66
2022/10/23 01:14:01;;;;;;;9.75;8.65;;;11.50;99.90;;;;;;5064734;28;20097;-67
2022/10/23 01:17:05;;;;;;;13.43;9.15;;;11.50;99.90;;;;;;5072701;28;20036;-66
2022/10/23 01:19:55;;;;;;;11.50;8.70;;;11.50;99.90;;;;;;5046234;28;20079;-66
2022/10/23 01:22:51;;;;;;;12.73;9.02;;;11.50;99.90;;;;;;5068943;28;20039;-66
2022/10/23 01:25:49;;;;;;;14.13;8.77;;;11.50;99.90;;;;;;5044525;28;20039;-67
2022/10/23 01:28:28;;;;;;;11.77;8.23;;;11.50;99.90;;;;;;5067742;28;20448;-67
2022/10/23 01:30:58;;;;;;;13.77;9.30;;;11.40;99.90;;;;;;5072175;28;20487;-66
2022/10/23 01:33:40;;;;;;;11.80;8.25;;;11.40;99.90;;;;;;5069169;28;20024;-67
2022/10/23 01:36:11;;;;;;;9.83;8.67;;;11.40;99.90;;;;;;5084665;28;20059;-67
2022/10/23 01:38:51;;;;;;;9.43;8.02;;;11.40;99.90;;;;;;5066132;28;20108;-67
2022/10/23 01:41:25;;;;;;;10.23;8.07;;;11.40;99.90;;;;;;5071803;28;20047;-66
2022/10/23 01:43:59;;;;;;;15.40;9.77;;;11.40;99.90;;;;;;5067504;28;20086;-66
2022/10/23 01:46:26;;;;;;;12.80;9.73;;;11.30;99.90;;;;;;5067721;28;20052;-67
2022/10/23 01:48:54;;;;;;;10.38;8.90;;;11.30;99.90;;;;;;5054807;28;20111;-67
2022/10/23 01:51:25;;;;;;;16.10;10.18;;;11.30;99.90;;;;;;5071901;28;20043;-67
2022/10/23 01:53:56;;;;;;;12.63;8.68;;;11.30;99.90;;;;;;5054268;28;20168;-65
2022/10/23 01:56:29;;;;;;;13.93;9.23;;;11.30;99.90;;;;;;5068030;28;20764;-66
2022/10/23 01:58:57;;;;;;;14.07;9.15;;;11.30;99.90;;;;;;5047987;28;20596;-67
2022/10/23 02:01:26;;;;;;;12.48;9.23;;;11.30;99.90;;;;;;5064311;28;20071;-66
2022/10/23 02:03:53;;;;;;;17.85;10.25;;;11.30;99.90;;;;;;5069092;28;20047;-66
2022/10/23 02:06:19;;;;;;;13.98;9.38;;;11.30;99.90;;;;;;5065984;28;20044;-66
2022/10/23 02:08:45;;;;;;;17.70;9.75;;;11.30;99.90;;;;;;5069291;28;20094;-67
2022/10/23 02:11:14;;;;;;;12.60;8.80;;;11.30;99.90;;;;;;5071146;28;20482;-67
2022/10/23 02:13:56;;;;;;;14.98;10.15;;;11.30;99.90;;;;;;5067743;28;20111;-67
2022/10/23 02:16:22;;;;;;;13.90;10.02;;;11.40;99.90;;;;;;5070901;28;20394;-67
2022/10/23 02:19:21;;;;;;;12.65;9.63;;;11.30;99.90;;;;;;5069993;28;20044;-67
2022/10/23 02:22:07;;;;;;;14.90;10.02;;;11.30;99.90;;;;;;4991425;28;20096;-67
2022/10/23 02:24:42;;;;;;;13.02;9.13;;;11.30;99.90;;;;;;5022045;28;20478;-66
2022/10/23 02:27:25;;;;;;;15.13;10.32;;;11.30;99.90;;;;;;4994065;28;20129;-67
2022/10/23 02:29:56;;;;;;;13.25;10.25;;;11.30;99.90;;;;;;4993924;28;20052;-66
2022/10/23 02:32:25;;;;;;;14.73;9.77;;;11.30;99.90;;;;;;4996882;28;20430;-66
2022/10/23 02:34:51;;;;;;;15.00;10.27;;;11.20;99.90;;;;;;4986279;28;20124;-67
2022/10/23 02:37:16;;;;;;;13.43;10.18;;;11.20;99.90;;;;;;4990482;28;20536;-67
2022/10/23 02:39:42;;;;;;;13.68;10.50;;;11.20;99.90;;;;;;4988395;28;20119;-68
2022/10/23 02:42:13;;;;;;;15.10;11.00;;;11.30;99.90;;;;;;4994660;28;20046;-67
2022/10/23 02:44:46;;;;;;;14.82;10.23;;;11.20;99.90;;;;;;4973646;28;20046;-66
2022/10/23 02:47:35;;;;;;;13.20;10.20;;;11.30;99.90;;;;;;4992819;28;20084;-68
2022/10/23 02:50:14;;;;;;;17.05;11.13;;;11.30;99.90;;;;;;4991097;28;20500;-66
2022/10/23 02:52:49;;;;;;;15.18;10.90;;;11.20;99.90;;;;;;4993239;28;20046;-67
2022/10/23 02:55:35;;;;;;;14.55;10.60;;;11.30;99.90;;;;;;4995767;28;20124;-65
2022/10/23 02:58:11;;;;;;;16.05;11.23;;;11.30;99.90;;;;;;5003666;28;20060;-67
2022/10/23 03:00:40;;;;;;;16.60;11.25;;;11.30;99.90;;;;;;5055990;28;20056;-67
2022/10/23 03:03:13;;;;;;;18.35;11.25;;;11.30;99.90;;;;;;5074290;28;20055;-67
2022/10/23 03:05:40;;;;;;;13.27;10.32;;;11.30;99.90;;;;;;5075446;28;20055;-66
2022/10/23 03:08:10;;;;;;;19.67;11.50;;;11.30;99.90;;;;;;5072646;28;20127;-66
2022/10/23 03:10:36;;;;;;;18.42;11.43;;;11.30;99.90;;;;;;5090818;28;20394;-67
2022/10/23 03:13:02;;;;;;;15.30;10.57;;;11.30;99.90;;;;;;5075243;28;20048;-68
2022/10/23 03:15:27;;;;;;;16.75;10.60;;;11.30;99.90;;;;;;5066839;28;20036;-66
2022/10/23 03:17:54;;;;;;;15.25;10.50;;;11.30;99.90;;;;;;5074217;28;20505;-66
2022/10/23 03:20:19;;;;;;;17.25;11.45;;;11.30;99.90;;;;;;5071520;28;20044;-67
2022/10/23 03:22:45;;;;;;;17.42;11.13;;;11.30;99.90;;;;;;5076995;28;20538;-66
2022/10/23 03:25:11;;;;;;;16.40;11.32;;;11.30;99.90;;;;;;5075081;28;20140;-67
2022/10/23 03:27:36;;;;;;;16.52;11.13;;;11.30;99.90;;;;;;5072223;28;20047;-67
2022/10/23 03:30:04;;;;;;;16.88;10.93;;;11.30;99.90;;;;;;5071584;28;20048;-67
2022/10/23 03:32:29;;;;;;;18.90;11.55;;;11.20;99.90;;;;;;5053226;28;20032;-65
2022/10/23 03:34:55;;;;;;;18.67;11.55;;;11.20;99.90;;;;;;5073570;28;20040;-66
2022/10/23 03:37:21;;;;;;;18.75;11.55;;;11.20;99.90;;;;;;5090820;28;20395;-67
2022/10/23 03:39:47;;;;;;;17.02;11.25;;;11.20;99.90;;;;;;5052413;28;20040;-67
2022/10/23 03:42:12;;;;;;;16.63;11.70;;;11.20;99.90;;;;;;5067685;28;20047;-66
2022/10/23 03:44:38;;;;;;;20.00;11.73;;;11.20;99.90;;;;;;5091778;28;20119;-66
2022/10/23 03:47:04;;;;;;;15.90;11.35;;;11.20;99.90;;;;;;5072594;28;20678;-67
2022/10/23 03:49:30;;;;;;;16.27;11.02;;;11.20;99.90;;;;;;5088725;28;20041;-66
2022/10/23 03:51:55;;;;;;;17.58;11.50;;;11.20;99.90;;;;;;5091266;28;20040;-65
2022/10/23 03:54:22;;;;;;;19.50;11.63;;;11.20;99.90;;;;;;5084633;28;20398;-67
2022/10/23 03:56:48;;;;;;;16.58;10.43;;;11.20;99.90;;;;;;5086491;28;20521;-66
2022/10/23 03:59:14;;;;;;;15.63;10.93;;;11.20;99.90;;;;;;5090490;28;20068;-67
2022/10/23 04:01:39;;;;;;;17.35;11.05;;;11.10;99.90;;;;;;5087556;28;20092;-67
2022/10/23 04:04:05;;;;;;;14.13;11.35;;;11.20;99.90;;;;;;5069750;28;20048;-66
2022/10/23 04:06:31;;;;;;;15.93;10.43;;;11.20;99.90;;;;;;5082801;28;20040;-66
2022/10/23 04:08:56;;;;;;;16.85;10.63;;;11.10;99.90;;;;;;5088586;28;20055;-67
2022/10/23 04:11:22;;;;;;;13.25;9.65;;;11.10;99.90;;;;;;5090192;28;20047;-66
2022/10/23 04:13:48;;;;;;;15.18;9.93;;;11.10;99.90;;;;;;5082803;28;20044;-65
2022/10/23 04:16:14;;;;;;;18.92;11.40;;;11.10;99.90;;;;;;5072776;28;20044;-66
2022/10/23 04:18:40;;;;;;;22.05;11.57;;;11.10;99.90;;;;;;5088313;28;20040;-65
2022/10/23 04:21:06;;;;;;;18.55;10.65;;;11.10;99.90;;;;;;5087450;28;20486;-67
2022/10/23 04:23:32;;;;;;;17.83;10.93;;;11.10;99.90;;;;;;5083496;28;20039;-66
2022/10/23 04:25:58;;;;;;;19.10;11.43;;;11.10;99.90;;;;;;5086963;28;20485;-66
2022/10/23 04:28:24;;;;;;;16.08;10.90;;;11.00;99.90;;;;;;5089656;28;20036;-66
2022/10/23 04:30:50;;;;;;;19.00;11.13;;;11.00;99.90;;;;;;5086301;28;20040;-66
2022/10/23 04:33:16;;;;;;;20.58;11.48;;;11.00;99.90;;;;;;5085561;28;20447;-67
2022/10/23 04:35:42;;;;;;;21.10;12.18;;;11.00;99.90;;;;;;5076973;28;20033;-67
2022/10/23 04:38:07;;;;;;;16.38;11.18;;;11.00;99.90;;;;;;5088321;28;20043;-66
2022/10/23 04:40:33;;;;;;;16.83;10.90;;;11.00;99.90;;;;;;5086793;28;20023;-65
2022/10/23 04:42:59;;;;;;;16.35;11.73;;;11.00;99.90;;;;;;5086003;28;20085;-66
2022/10/23 04:45:25;;;;;;;18.30;10.32;;;11.00;99.90;;;;;;5086987;28;20518;-66
2022/10/23 04:47:52;;;;;;;15.90;10.63;;;10.90;99.90;;;;;;5067608;28;20028;-65
2022/10/23 04:50:19;;;;;;;15.80;9.90;;;11.00;99.90;;;;;;5056583;28;20047;-67
2022/10/23 04:52:44;;;;;;;18.02;11.25;;;10.90;99.90;;;;;;5069103;28;20591;-66
2022/10/23 04:55:10;;;;;;;15.18;10.18;;;10.90;99.90;;;;;;5072198;28;20074;-67
2022/10/23 04:57:35;;;;;;;19.08;10.98;;;11.00;99.90;;;;;;5070342;28;20119;-66
2022/10/23 05:00:03;;;;;;;16.67;9.73;;;10.90;99.90;;;;;;5071347;28;20043;-66
2022/10/23 05:02:28;;;;;;;16.95;10.57;;;10.90;99.90;;;;;;5069997;28;20047;-65
2022/10/23 05:04:54;;;;;;;19.58;10.50;;;10.90;99.90;;;;;;5073718;28;20048;-66
2022/10/23 05:07:19;;;;;;;20.85;11.10;;;10.90;99.90;;;;;;5070490;28;20410;-67
2022/10/23 05:09:45;;;;;;;19.55;9.75;;;10.90;99.90;;;;;;5071325;28;20155;-66
2022/10/23 05:12:11;;;;;;;17.90;10.77;;;10.90;99.90;;;;;;5073201;28;20398;-66
2022/10/23 05:14:36;;;;;;;16.23;10.63;;;10.90;99.90;;;;;;5070182;28;20032;-67
2022/10/23 05:17:10;;;;;;;20.05;11.70;;;10.90;99.90;;;;;;5072462;28;20047;-67
2022/10/23 05:19:42;;;;;;;16.75;10.63;;;10.90;99.90;;;;;;5073385;28;20048;-66
2022/10/23 05:22:09;;;;;;;14.77;10.18;;;10.90;99.90;;;;;;5067490;28;20043;-67
2022/10/23 05:24:34;;;;;;;19.05;10.75;;;10.90;99.90;;;;;;5068841;28;20058;-67
2022/10/23 05:27:00;;;;;;;15.05;9.45;;;10.90;99.90;;;;;;5066368;28;20040;-67
2022/10/23 05:29:26;;;;;;;16.73;10.45;;;10.90;99.90;;;;;;5068332;28;20047;-66
2022/10/23 05:32:01;;;;;;;17.92;10.65;;;10.90;99.90;;;;;;5071196;28;20082;-66
2022/10/23 05:34:29;;;;;;;18.08;10.23;;;10.90;99.90;;;;;;5072643;28;20044;-67
2022/10/23 05:36:54;;;;;;;17.38;10.70;;;10.90;99.90;;;;;;5066940;28;20134;-66
2022/10/23 05:39:20;;;;;;;16.48;10.35;;;10.90;99.90;;;;;;5054068;28;20127;-68
2022/10/23 05:41:46;;;;;;;16.02;10.63;;;10.90;99.90;;;;;;5067618;28;20406;-67
2022/10/23 05:44:11;;;;;;;17.58;10.25;;;10.90;99.90;;;;;;5067765;28;20046;-67
2022/10/23 05:46:41;;;;;;;19.25;10.85;;;10.90;99.90;;;;;;5063549;28;20062;-67
2022/10/23 05:49:07;;;;;;;16.17;9.77;;;10.90;99.90;;;;;;5065206;28;20164;-67
2022/10/23 05:51:36;;;;;;;18.35;10.75;;;10.90;99.90;;;;;;5067160;28;20040;-67
2022/10/23 05:54:02;;;;;;;13.85;10.20;;;10.90;99.90;;;;;;5057926;28;20045;-67
2022/10/23 05:56:27;;;;;;;17.42;10.43;;;10.90;99.90;;;;;;5047498;28;20043;-67
2022/10/23 05:58:53;;;;;;;16.98;10.80;;;10.90;99.90;;;;;;5065874;28;20475;-66
2022/10/23 06:01:18;;;;;;;17.38;10.73;;;10.90;99.90;;;;;;5051297;28;20051;-67
2022/10/23 06:03:44;;;;;;;14.82;10.02;;;10.90;99.90;;;;;;5066978;28;20044;-67
2022/10/23 06:06:10;;;;;;;21.73;11.57;;;10.90;99.90;;;;;;5068279;28;20052;-67
2022/10/23 06:08:36;;;;;;;16.90;11.32;;;10.90;99.90;;;;;;5068578;28;20386;-67
2022/10/23 06:11:07;;;;;;;16.50;10.50;;;10.90;99.90;;;;;;5069767;28;20128;-68
2022/10/23 06:13:32;;;;;;;20.77;11.07;;;11.00;99.90;;;;;;5072867;28;20115;-67
2022/10/23 06:15:58;;;;;;;16.48;10.73;;;11.00;99.90;;;;;;5070631;28;20548;-68
2022/10/23 06:18:23;;;;;;;16.40;11.13;;;11.00;99.90;;;;;;5051682;28;20044;-67
2022/10/23 06:20:49;;;;;;;22.65;11.18;;;11.00;99.90;;;;;;5069471;28;20051;-68
2022/10/23 06:23:14;;;;;;;18.65;10.88;;;11.00;99.90;;;;;;5065091;28;20032;-68
2022/10/23 06:25:40;;;;;;;19.45;11.90;;;11.00;99.90;;;;;;5069235;28;20449;-67
2022/10/23 06:28:06;;;;;;;19.00;11.15;;;11.00;99.90;;;;;;5073727;28;20044;-67
2022/10/23 06:30:31;;;;;;;17.95;11.57;;;11.10;99.90;;;;;;5065936;28;20962;-67
2022/10/23 06:32:57;;;;;;;18.02;11.57;;;11.10;99.90;;;;;;5067293;28;20060;-67
2022/10/23 06:35:22;;;;;;;21.52;11.63;;;11.20;99.90;;;;;;5074843;28;20040;-68
2022/10/23 06:37:48;;;;;;;18.98;11.55;;;11.20;99.90;;;;;;5075495;28;20492;-67
2022/10/23 06:40:14;;;;;;;22.67;12.20;;;11.20;99.90;;;;;;5075340;28;20445;-67
2022/10/23 06:42:39;;;;;;;14.95;11.60;;;11.20;99.90;;;;;;5074357;28;20123;-67
2022/10/23 06:45:05;;;;;;;18.90;12.43;;;11.20;99.90;;;;;;5069226;28;20028;-67
2022/10/23 06:47:31;;;;;;;22.45;12.00;;;11.20;99.90;;;;;;5092550;28;20389;-67
2022/10/23 06:49:56;;;;;;;18.52;11.02;;;11.30;99.90;;;;;;5089981;28;20035;-68
2022/10/23 06:52:22;;;;;;;18.42;11.23;;;11.30;99.90;;;;;;5093160;28;20092;-67
2022/10/23 06:54:48;;;;;;;18.67;11.90;;;11.30;99.90;;;;;;5090894;28;20035;-68
2022/10/23 06:57:13;;;;;;;21.70;11.45;;;11.40;99.90;;;;;;5094066;28;20028;-67
2022/10/23 06:59:39;;;;;;;18.67;11.27;;;11.40;99.90;;;;;;5090950;28;20564;-67
2022/10/23 07:02:05;;;;;;;20.38;11.40;;;11.40;99.90;;;;;;5089649;28;20052;-67
2022/10/23 07:04:30;;;;;;;17.80;10.95;;;11.40;99.90;;;;;;5094966;28;20384;-67
2022/10/23 07:06:56;;;;;;;18.98;11.35;;;11.40;99.90;;;;;;5093493;28;20051;-67
2022/10/23 07:09:22;;;;;;;18.38;10.80;;;11.50;99.90;;;;;;5075296;28;20044;-67
2022/10/23 07:11:48;;;;;;;16.95;10.60;;;11.50;99.90;;;;;;5089617;28;20044;-68
2022/10/23 07:14:14;;;;;;;14.52;10.90;;;11.50;99.90;;;;;;5071796;28;20071;-67
2022/10/23 07:16:39;;;;;;;16.05;10.65;;;11.50;99.90;;;;;;5082115;28;20040;-67
2022/10/23 07:19:05;;;;;;;16.88;11.07;;;11.50;99.90;;;;;;5082280;28;20039;-67
2022/10/23 07:21:35;;;;;;;16.67;10.95;;;11.60;99.90;;;;;;5086257;28;20041;-68
2022/10/23 07:24:02;;;;;;;13.70;10.55;;;11.60;99.90;;;;;;5068002;28;20055;-68
2022/10/23 07:26:28;;;;;;;14.77;10.27;;;11.60;99.90;;;;;;5092355;28;20048;-68
2022/10/23 07:28:54;;;;;;;16.17;10.57;;;11.60;99.90;;;;;;5087254;28;20062;-67
2022/10/23 07:31:24;;;;;;;14.30;9.98;;;11.60;99.90;;;;;;5084861;28;20047;-67
2022/10/23 07:33:50;;;;;;;16.75;10.65;;;11.60;99.90;;;;;;5087891;28;20734;-67
2022/10/23 07:36:16;;;;;;;19.20;10.75;;;11.60;99.90;;;;;;5089904;28;20040;-68
2022/10/23 07:38:41;;;;;;;16.77;11.20;;;11.70;99.90;;;;;;5085885;28;20126;-68
2022/10/23 07:41:07;;;;;;;17.08;10.52;;;11.60;99.90;;;;;;5089719;28;20119;-67
2022/10/23 07:43:34;;;;;;;13.95;10.43;;;11.60;99.90;;;;;;5086261;28;20044;-67
2022/10/23 07:46:00;;;;;;;19.05;11.43;;;11.70;99.90;;;;;;5104653;28;20048;-67
2022/10/23 07:48:26;;;;;;;18.35;11.10;;;11.70;99.90;;;;;;5089597;28;20109;-67
2022/10/23 07:50:56;;;;;;;16.50;10.80;;;11.70;99.90;;;;;;5086388;28;20044;-67
2022/10/23 07:53:23;;;;;;;17.10;11.07;;;11.70;99.90;;;;;;5087603;28;20766;-67
2022/10/23 07:55:58;;;;;;;12.77;10.70;;;11.70;99.90;;;;;;5088514;28;20040;-67
2022/10/23 07:58:25;;;;;;;19.40;11.63;;;11.80;99.90;;;;;;5089905;28;20064;-67
2022/10/23 08:01:01;;;;;;;13.10;10.52;;;11.80;99.90;;;;;;5085157;28;20040;-68
2022/10/23 08:03:29;;;;;;;14.18;10.50;;;11.80;99.90;;;;;;5124091;27;20078;-68
2022/10/23 08:05:56;;;;;;;17.23;11.23;;;11.80;99.90;;;;;;5085450;28;20033;-68
2022/10/23 08:08:22;;;;;;;14.77;10.57;;;11.90;99.90;;;;;;5089895;28;20044;-67
2022/10/23 08:10:50;;;;;;;14.60;10.45;;;11.90;99.90;;;;;;5086396;28;20055;-68
2022/10/23 08:13:16;;;;;;;17.50;10.80;;;11.90;99.90;;;;;;5085412;28;20032;-68
2022/10/23 08:15:43;;;;;;;14.98;10.20;;;12.00;99.90;;;;;;5070176;28;20046;-68
2022/10/23 08:18:09;;;;;;;16.08;10.27;;;12.00;99.90;;;;;;5085240;28;20437;-68
2022/10/23 08:20:43;;;;;;;15.93;10.60;;;12.00;99.90;;;;;;5082700;28;20032;-68
2022/10/23 08:23:11;;;;;;;16.48;10.20;;;12.10;99.90;;;;;;5085670;28;20406;-67
2022/10/23 08:25:37;;;;;;;16.55;10.63;;;12.20;99.90;;;;;;5087835;28;20100;-67
2022/10/23 08:28:04;;;;;;;18.50;10.25;;;12.20;99.90;;;;;;5069464;28;20048;-68
2022/10/23 08:30:30;;;;;;;16.65;10.07;;;12.30;99.90;;;;;;5085427;28;20110;-68
2022/10/23 08:32:55;;;;;;;14.48;9.38;;;12.40;99.90;;;;;;5082967;28;20122;-68
2022/10/23 08:35:21;;;;;;;16.02;9.32;;;12.40;99.90;;;;;;5081936;28;20035;-68
2022/10/23 08:37:47;;;;;;;16.35;9.43;;;12.50;99.90;;;;;;5089671;28;20429;-67
2022/10/23 08:40:20;;;;;;;13.50;8.27;;;12.60;99.90;;;;;;5086257;28;20033;-67
2022/10/23 08:43:09;;;;;;;10.18;7.60;;;12.70;99.90;;;;;;5083775;28;20043;-68
2022/10/23 08:45:46;;;;;;;11.80;8.45;;;12.80;99.90;;;;;;5083644;28;20048;-67
2022/10/23 08:48:27;;;;;;;11.27;7.18;;;12.90;99.90;;;;;;5065235;28;20047;-67
2022/10/23 08:51:12;;;;;;;11.98;8.20;;;12.90;99.90;;;;;;5053583;28;20440;-67
2022/10/23 08:53:38;;;;;;;15.55;8.30;;;13.10;99.90;;;;;;5066998;28;20387;-67
2022/10/23 08:56:35;;;;;;;13.60;7.65;;;13.10;99.90;;;;;;5069520;28;20117;-68
2022/10/23 08:59:19;;;;;;;17.98;7.97;;;13.20;99.90;;;;;;4971510;28;20109;-67
2022/10/23 09:02:03;;;;;;;11.93;7.22;;;13.20;99.90;;;;;;4966140;28;20505;-67
2022/10/23 09:04:30;;;;;;;11.50;7.80;;;13.30;99.90;;;;;;4982840;28;20050;-68
2022/10/23 09:07:37;;;;;;;14.57;7.75;;;13.40;99.90;;;;;;4966648;28;20042;-67
2022/10/23 09:10:17;;;;;;;14.23;8.02;;;13.50;99.90;;;;;;4941328;28;20417;-67
2022/10/23 09:12:43;;;;;;;12.88;7.78;;;13.60;99.90;;;;;;4961916;28;20130;-67
2022/10/23 09:15:46;;;;;;;13.43;6.72;;;13.60;99.90;;;;;;4948759;28;20220;-68
2022/10/23 09:18:13;;;;;;;;;;;13.70;99.90;;;;;;4924852;29;20122;-67
2022/10/23 09:20:41;;;;;;;10.07;6.35;;;13.70;99.90;;;;;;4930908;29;19922;-67
2022/10/23 09:23:17;;;;;;;12.20;7.30;;;13.70;99.90;;;;;;4930441;29;20062;-68
2022/10/23 09:25:44;;;;;;;12.25;8.00;;;13.70;99.90;;;;;;4945446;29;20046;-68
2022/10/23 09:28:42;;;;;;;10.23;6.93;;;13.80;99.90;;;;;;4929440;29;20051;-67
2022/10/23 09:31:10;;;;;;;13.35;7.25;;;13.80;99.90;;;;;;4876860;29;20064;-67
2022/10/23 09:33:36;;;;;;;11.43;7.25;;;13.80;99.90;;;;;;4873956;29;20052;-67
2022/10/23 09:36:16;;;;;;;9.50;7.00;;;13.90;99.90;;;;;;4886908;29;20048;-68
2022/10/23 09:38:45;;;;;;;12.00;7.32;;;13.90;99.90;;;;;;4894491;29;20103;-67
2022/10/23 09:41:19;;;;;;;10.27;7.60;;;13.90;99.90;;;;;;4895915;29;20571;-68
2022/10/23 09:43:45;;;;;;;10.73;7.15;;;14.00;99.90;;;;;;4895446;29;20103;-68
2022/10/23 09:46:11;;;;;;;10.50;6.88;;;14.00;99.90;;;;;;4897948;29;20515;-67
2022/10/23 09:48:38;;;;;;;10.25;6.93;;;14.00;99.90;;;;;;4876952;29;20057;-68
2022/10/23 09:51:18;;;;;;;12.77;6.95;;;14.00;99.90;;;;;;4892596;29;20052;-67
2022/10/23 09:53:49;;;;;;;13.93;7.45;;;14.10;99.90;;;;;;4893844;28;20050;-67
2022/10/23 09:56:23;;;;;;;11.73;6.53;;;14.10;99.90;;;;;;4954317;28;20049;-68
2022/10/23 09:58:59;;;;;;;8.63;6.20;;;14.10;99.90;;;;;;4959309;28;20073;-67
2022/10/23 10:01:30;;;;;;;8.90;6.05;;;14.20;99.90;;;;;;4947894;28;20046;-68
2022/10/23 10:03:56;;;;;;;10.85;5.93;;;14.30;99.90;;;;;;4953215;28;20061;-67
2022/10/23 10:06:28;;;;;;;13.80;6.03;;;14.30;99.90;;;;;;4952695;28;20088;-68
2022/10/23 10:08:55;;;;;;;;;;;14.30;99.90;;;;;;5022151;28;20415;-67
2022/10/23 10:11:26;;;;;;;9.88;5.82;;;14.30;99.90;;;;;;5050687;28;19924;-68
2022/10/23 10:14:10;;;;;;;9.68;6.18;;;14.40;99.90;;;;;;5030361;28;20032;-67
2022/10/23 10:16:52;;;;;;;9.98;5.88;;;14.50;99.90;;;;;;5079953;28;20040;-68
2022/10/23 10:19:47;;;;;;;9.82;5.22;;;14.60;99.90;;;;;;5047551;28;20075;-68
2022/10/23 10:22:25;;;;;;;12.52;5.53;;;14.70;99.90;;;;;;5051153;28;20495;-67
2022/10/23 10:25:21;;;;;;;9.70;5.30;;;14.70;99.90;;;;;;5051141;28;20443;-68
2022/10/23 10:28:22;;;;;;;11.13;5.72;;;14.80;99.90;;;;;;5050980;28;20040;-68
2022/10/23 10:30:48;;;;;;;8.32;5.63;;;14.80;99.90;;;;;;5048380;28;20048;-68
2022/10/23 10:33:16;;;;;;;13.23;5.68;;;14.80;99.90;;;;;;5049160;28;20043;-67
2022/10/23 10:35:53;;;;;;;8.98;5.43;;;14.80;99.90;;;;;;5047882;28;20048;-68
2022/10/23 10:38:31;;;;;;;6.75;4.25;;;14.80;99.90;;;;;;5043008;28;20032;-67
2022/10/23 10:41:28;;;;;;;8.50;4.93;;;14.80;99.90;;;;;;5042923;28;20040;-67
2022/10/23 10:44:13;;;;;;;7.88;4.53;;;14.80;99.90;;;;;;5044716;28;20596;-68
2022/10/23 10:46:47;;;;;;;9.65;4.32;;;14.80;99.90;;;;;;5079689;28;20105;-67
2022/10/23 10:49:27;;;;;;;8.10;4.93;;;14.80;99.90;;;;;;5090077;28;20089;-68
2022/10/23 10:51:59;;;;;;;8.68;4.22;;;14.80;99.90;;;;;;5091524;28;20052;-67
2022/10/23 10:54:43;;;;;;;7.43;4.50;;;14.80;99.90;;;;;;5089057;28;20249;-68
2022/10/23 10:57:21;;;;;;;8.73;4.10;;;14.80;99.90;;;;;;5083332;28;20043;-69
2022/10/23 10:59:52;;;;;;;8.02;4.25;;;14.80;99.90;;;;;;5081061;28;20032;-68
2022/10/23 11:02:26;;;;;;;6.82;3.33;;;14.80;99.90;;;;;;5085693;28;20055;-68
2022/10/23 11:05:17;;;;;;;9.15;3.92;;;14.80;99.90;;;;;;5084892;28;20075;-68
2022/10/23 11:07:54;;;;;;;7.82;3.70;;;14.80;99.90;;;;;;5080653;28;20402;-68
2022/10/23 11:10:19;;;;;;;8.30;4.20;;;14.70;99.90;;;;;;5086648;28;20051;-68
2022/10/23 11:12:47;;;;;;;13.07;4.50;;;14.70;99.90;;;;;;5085110;28;20039;-67
2022/10/23 11:15:39;;;;;;;9.77;4.68;;;14.70;99.90;;;;;;5089916;28;20059;-68
2022/10/23 11:18:14;;;;;;;9.52;5.28;;;14.70;99.90;;;;;;5008482;28;21419;-67
2022/10/23 11:20:49;;;;;;;7.85;5.05;;;14.70;99.90;;;;;;4985717;28;20057;-67
2022/10/23 11:23:54;;;;;;;6.03;4.22;;;14.70;99.90;;;;;;5002776;28;20073;-68
2022/10/23 11:26:41;;;;;;;9.40;3.90;;;14.70;99.90;;;;;;4992357;28;20116;-67
2022/10/23 11:29:12;;;;;;;5.43;4.03;;;14.70;99.90;;;;;;4990035;28;20046;-68
2022/10/23 11:31:49;;;;;;;5.50;3.78;;;14.80;99.90;;;;;;4990518;28;20048;-68
2022/10/23 11:34:38;;;;;;;11.27;4.00;;;14.80;99.90;;;;;;4992829;28;20189;-68
2022/10/23 11:37:05;;;;;;;7.45;3.83;;;14.80;99.90;;;;;;4991614;28;20441;-68
2022/10/23 11:39:33;;;;;;;4.60;3.80;;;14.90;99.90;;;;;;4975767;28;20048;-67
2022/10/23 11:42:13;;;;;;;6.03;3.40;;;14.90;99.90;;;;;;4988641;28;20062;-68
2022/10/23 11:44:43;;;;;;;11.07;3.90;;;14.90;99.90;;;;;;4990640;28;20037;-67
2022/10/23 11:47:37;;;;;;;6.78;3.30;;;14.90;99.90;;;;;;4991866;28;20053;-68
2022/10/23 11:50:12;;;;;;;6.88;3.58;;;15.00;99.90;;;;;;5019368;28;20554;-67
2022/10/23 11:52:51;;;;;;;6.53;3.33;;;14.90;99.90;;;;;;4992091;28;20034;-68
2022/10/23 11:55:20;;;;;;;8.35;3.50;;;14.90;99.90;;;;;;5046518;28;20063;-67
2022/10/23 11:58:06;;;;;;;7.75;3.70;;;14.90;99.90;;;;;;5085171;28;20051;-68
2022/10/23 12:00:34;;;;;;;7.88;3.47;;;14.90;99.90;;;;;;5083201;28;20040;-68
2022/10/23 12:03:01;;;;;;;8.82;4.00;;;14.90;99.90;;;;;;5062093;28;20105;-68
2022/10/23 12:05:37;;;;;;;9.88;3.08;;;14.90;99.90;;;;;;5086314;28;20054;-68
2022/10/23 12:08:06;;;;;;;6.05;3.38;;;14.90;99.90;;;;;;5083443;28;20051;-68
2022/10/23 12:10:44;;;;;;;7.43;3.28;;;14.90;99.90;;;;;;5085853;28;20742;-68
2022/10/23 12:13:36;;;;;;;6.93;3.17;;;15.00;99.90;;;;;;5081271;28;20124;-67
2022/10/23 12:16:03;;;;;;;7.18;2.90;;;15.00;99.90;;;;;;5085230;28;20529;-67
2022/10/23 12:18:29;;;;;;;7.25;3.00;;;15.00;99.90;;;;;;5103041;27;20434;-68
2022/10/23 12:21:00;;;;;;;9.25;3.17;;;15.00;99.90;;;;;;5079513;28;20040;-67
2022/10/23 12:23:51;;;;;;;7.00;2.92;;;15.10;99.90;;;;;;5089811;28;20071;-67
2022/10/23 12:26:47;;;;;;;6.97;2.95;;;15.10;99.90;;;;;;5121480;27;20032;-67
2022/10/23 12:29:26;;;;;;;6.43;3.20;;;15.00;99.90;;;;;;5073407;28;20123;-67
2022/10/23 12:32:11;;;;;;;6.63;3.05;;;15.10;99.90;;;;;;5091394;28;20044;-67
2022/10/23 12:34:55;;;;;;;6.10;2.90;;;15.10;99.90;;;;;;5068921;28;20075;-67
2022/10/23 12:37:58;;;;;;;7.68;2.65;;;15.10;99.90;;;;;;5102415;28;20051;-67
2022/10/23 12:40:29;;;;;;;4.13;2.60;;;15.10;99.90;;;;;;5090895;28;20442;-67
2022/10/23 12:42:57;;;;;;;7.75;3.72;;;15.10;99.90;;;;;;5090366;28;20040;-67
2022/10/23 12:45:37;;;;;;;10.98;3.92;;;15.10;99.90;;;;;;5090420;28;20040;-67
2022/10/23 12:48:03;;;;;;;10.80;3.13;;;15.10;99.90;;;;;;5073581;28;20136;-68
2022/10/23 12:50:31;;;;;;;8.75;3.10;;;15.10;99.90;;;;;;5056235;28;20052;-67
2022/10/23 12:53:00;;;;;;;7.43;3.10;;;15.10;99.90;;;;;;5072862;28;20096;-67
2022/10/23 12:55:28;;;;;;;7.60;3.20;;;15.10;99.90;;;;;;5073018;28;20498;-67
2022/10/23 12:57:54;;;;;;;6.85;3.30;;;15.20;99.90;;;;;;5072064;28;20158;-67